sensor_id;sensor_type;location;lat;lon;timestamp;P1;durP1;ratioP1;P2;durP2;ratioP2
57643;SDS011;43474;46.510;6.686;2023-11-19T00:00:16;2.40;;;1.27;;
57643;SDS011;43474;46.510;6.686;2023-11-19T00:03:02;6.07;;;2.58;;
57643;SDS011;43474;46.510;6.686;2023-11-19T00:05:28;2.92;;;1.60;;
57643;SDS011;43474;46.510;6.686;2023-11-19T00:07:54;1.95;;;0.98;;
57643;SDS011;43474;46.510;6.686;2023-11-19T00:10:20;4.15;;;1.85;;
57643;SDS011;43474;46.510;6.686;2023-11-19T00:12:46;5.25;;;1.90;;
57643;SDS011;43474;46.510;6.686;2023-11-19T00:15:13;1.55;;;1.20;;
57643;SDS011;43474;46.510;6.686;2023-11-19T00:17:40;2.60;;;1.60;;
57643;SDS011;43474;46.510;6.686;2023-11-19T00:20:14;3.60;;;2.80;;
57643;SDS011;43474;46.510;6.686;2023-11-19T00:22:41;3.10;;;1.95;;
57643;SDS011;43474;46.510;6.686;2023-11-19T00:25:08;3.00;;;1.80;;
57643;SDS011;43474;46.510;6.686;2023-11-19T00:27:34;3.72;;;2.05;;
57643;SDS011;43474;46.510;6.686;2023-11-19T00:30:01;3.88;;;2.22;;
57643;SDS011;43474;46.510;6.686;2023-11-19T00:32:26;2.92;;;1.60;;
57643;SDS011;43474;46.510;6.686;2023-11-19T00:34:52;2.10;;;1.27;;
57643;SDS011;43474;46.510;6.686;2023-11-19T00:37:17;3.13;;;1.40;;
57643;SDS011;43474;46.510;6.686;2023-11-19T00:39:43;3.08;;;1.67;;
57643;SDS011;43474;46.510;6.686;2023-11-19T00:42:09;1.67;;;1.33;;
57643;SDS011;43474;46.510;6.686;2023-11-19T00:44:39;4.10;;;2.35;;
57643;SDS011;43474;46.510;6.686;2023-11-19T00:47:04;2.60;;;1.60;;
57643;SDS011;43474;46.510;6.686;2023-11-19T00:49:31;2.10;;;1.83;;
57643;SDS011;43474;46.510;6.686;2023-11-19T00:51:58;2.38;;;1.45;;
57643;SDS011;43474;46.510;6.686;2023-11-19T00:54:24;1.85;;;1.52;;
57643;SDS011;43474;46.510;6.686;2023-11-19T00:56:54;2.42;;;1.42;;
57643;SDS011;43474;46.510;6.686;2023-11-19T00:59:20;3.15;;;1.27;;
57643;SDS011;43474;46.510;6.686;2023-11-19T01:01:46;3.33;;;1.60;;
57643;SDS011;43474;46.510;6.686;2023-11-19T01:04:16;1.58;;;0.90;;
57643;SDS011;43474;46.510;6.686;2023-11-19T01:06:42;2.75;;;1.17;;
57643;SDS011;43474;46.510;6.686;2023-11-19T01:09:08;2.88;;;0.90;;
57643;SDS011;43474;46.510;6.686;2023-11-19T01:11:34;2.28;;;1.48;;
57643;SDS011;43474;46.510;6.686;2023-11-19T01:14:00;1.77;;;1.02;;
57643;SDS011;43474;46.510;6.686;2023-11-19T01:16:26;1.65;;;0.80;;
57643;SDS011;43474;46.510;6.686;2023-11-19T01:18:52;1.25;;;0.90;;
57643;SDS011;43474;46.510;6.686;2023-11-19T01:21:18;2.33;;;1.00;;
57643;SDS011;43474;46.510;6.686;2023-11-19T01:23:44;2.58;;;1.27;;
57643;SDS011;43474;46.510;6.686;2023-11-19T01:26:11;1.85;;;1.15;;
57643;SDS011;43474;46.510;6.686;2023-11-19T01:28:41;2.38;;;1.13;;
57643;SDS011;43474;46.510;6.686;2023-11-19T01:31:10;3.33;;;1.83;;
57643;SDS011;43474;46.510;6.686;2023-11-19T01:33:36;3.20;;;1.48;;
57643;SDS011;43474;46.510;6.686;2023-11-19T01:36:02;2.17;;;1.42;;
57643;SDS011;43474;46.510;6.686;2023-11-19T01:38:29;1.20;;;1.10;;
57643;SDS011;43474;46.510;6.686;2023-11-19T01:40:56;2.25;;;0.90;;
57643;SDS011;43474;46.510;6.686;2023-11-19T01:45:58;1.85;;;1.27;;
57643;SDS011;43474;46.510;6.686;2023-11-19T01:48:24;5.63;;;1.90;;
57643;SDS011;43474;46.510;6.686;2023-11-19T01:50:50;3.63;;;1.50;;
57643;SDS011;43474;46.510;6.686;2023-11-19T01:53:17;5.30;;;1.48;;
57643;SDS011;43474;46.510;6.686;2023-11-19T01:55:43;2.50;;;1.30;;
57643;SDS011;43474;46.510;6.686;2023-11-19T01:58:11;6.22;;;1.55;;
57643;SDS011;43474;46.510;6.686;2023-11-19T02:00:37;2.00;;;1.13;;
57643;SDS011;43474;46.510;6.686;2023-11-19T02:03:05;3.40;;;1.50;;
57643;SDS011;43474;46.510;6.686;2023-11-19T02:05:33;4.93;;;1.52;;
57643;SDS011;43474;46.510;6.686;2023-11-19T02:08:00;3.25;;;1.20;;
57643;SDS011;43474;46.510;6.686;2023-11-19T02:10:26;1.33;;;1.20;;
57643;SDS011;43474;46.510;6.686;2023-11-19T02:12:52;2.47;;;1.20;;
57643;SDS011;43474;46.510;6.686;2023-11-19T02:15:18;2.20;;;1.15;;
57643;SDS011;43474;46.510;6.686;2023-11-19T02:17:50;2.13;;;1.33;;
57643;SDS011;43474;46.510;6.686;2023-11-19T02:20:16;3.53;;;1.70;;
57643;SDS011;43474;46.510;6.686;2023-11-19T02:22:45;1.35;;;1.17;;
57643;SDS011;43474;46.510;6.686;2023-11-19T02:25:17;8.52;;;1.35;;
57643;SDS011;43474;46.510;6.686;2023-11-19T02:27:58;2.85;;;1.00;;
57643;SDS011;43474;46.510;6.686;2023-11-19T02:30:25;2.88;;;1.15;;
57643;SDS011;43474;46.510;6.686;2023-11-19T02:32:58;1.10;;;0.90;;
57643;SDS011;43474;46.510;6.686;2023-11-19T02:35:27;2.85;;;1.25;;
57643;SDS011;43474;46.510;6.686;2023-11-19T02:37:56;3.00;;;1.55;;
57643;SDS011;43474;46.510;6.686;2023-11-19T02:40:22;2.92;;;1.08;;
57643;SDS011;43474;46.510;6.686;2023-11-19T02:42:50;2.17;;;1.00;;
57643;SDS011;43474;46.510;6.686;2023-11-19T02:45:16;2.90;;;1.50;;
57643;SDS011;43474;46.510;6.686;2023-11-19T02:47:43;3.92;;;1.30;;
57643;SDS011;43474;46.510;6.686;2023-11-19T02:50:12;3.10;;;1.10;;
57643;SDS011;43474;46.510;6.686;2023-11-19T02:52:41;5.07;;;1.80;;
57643;SDS011;43474;46.510;6.686;2023-11-19T02:55:08;1.10;;;1.00;;
57643;SDS011;43474;46.510;6.686;2023-11-19T02:57:41;2.50;;;1.10;;
57643;SDS011;43474;46.510;6.686;2023-11-19T03:00:19;1.77;;;1.20;;
57643;SDS011;43474;46.510;6.686;2023-11-19T03:03:01;1.90;;;1.02;;
57643;SDS011;43474;46.510;6.686;2023-11-19T03:05:42;2.42;;;1.50;;
57643;SDS011;43474;46.510;6.686;2023-11-19T03:08:10;2.38;;;1.20;;
57643;SDS011;43474;46.510;6.686;2023-11-19T03:10:35;2.15;;;0.95;;
57643;SDS011;43474;46.510;6.686;2023-11-19T03:13:01;2.45;;;1.02;;
57643;SDS011;43474;46.510;6.686;2023-11-19T03:15:27;3.97;;;1.25;;
57643;SDS011;43474;46.510;6.686;2023-11-19T03:17:53;1.60;;;1.02;;
57643;SDS011;43474;46.510;6.686;2023-11-19T03:20:19;1.80;;;1.40;;
57643;SDS011;43474;46.510;6.686;2023-11-19T03:22:46;1.25;;;0.98;;
57643;SDS011;43474;46.510;6.686;2023-11-19T03:25:11;5.50;;;1.13;;
57643;SDS011;43474;46.510;6.686;2023-11-19T03:27:38;2.25;;;1.10;;
57643;SDS011;43474;46.510;6.686;2023-11-19T03:30:08;1.80;;;1.30;;
57643;SDS011;43474;46.510;6.686;2023-11-19T03:32:37;3.05;;;1.50;;
57643;SDS011;43474;46.510;6.686;2023-11-19T03:35:04;3.80;;;1.77;;
57643;SDS011;43474;46.510;6.686;2023-11-19T03:37:33;1.70;;;1.15;;
57643;SDS011;43474;46.510;6.686;2023-11-19T03:39:58;2.40;;;1.00;;
57643;SDS011;43474;46.510;6.686;2023-11-19T03:42:29;2.35;;;1.40;;
57643;SDS011;43474;46.510;6.686;2023-11-19T03:44:57;3.90;;;1.90;;
57643;SDS011;43474;46.510;6.686;2023-11-19T03:47:23;6.85;;;1.15;;
57643;SDS011;43474;46.510;6.686;2023-11-19T03:49:49;2.78;;;1.33;;
57643;SDS011;43474;46.510;6.686;2023-11-19T03:52:16;2.20;;;1.20;;
57643;SDS011;43474;46.510;6.686;2023-11-19T03:54:42;3.00;;;1.65;;
57643;SDS011;43474;46.510;6.686;2023-11-19T03:57:08;1.58;;;1.17;;
57643;SDS011;43474;46.510;6.686;2023-11-19T03:59:35;2.72;;;1.67;;
57643;SDS011;43474;46.510;6.686;2023-11-19T04:02:01;1.75;;;1.20;;
57643;SDS011;43474;46.510;6.686;2023-11-19T04:04:28;2.08;;;1.48;;
57643;SDS011;43474;46.510;6.686;2023-11-19T04:06:55;2.30;;;1.27;;
57643;SDS011;43474;46.510;6.686;2023-11-19T04:09:21;2.00;;;1.30;;
57643;SDS011;43474;46.510;6.686;2023-11-19T04:11:47;2.08;;;1.00;;
57643;SDS011;43474;46.510;6.686;2023-11-19T04:14:13;2.50;;;1.38;;
57643;SDS011;43474;46.510;6.686;2023-11-19T04:16:40;1.10;;;0.82;;
57643;SDS011;43474;46.510;6.686;2023-11-19T04:19:06;1.95;;;1.10;;
57643;SDS011;43474;46.510;6.686;2023-11-19T04:21:32;1.85;;;1.38;;
57643;SDS011;43474;46.510;6.686;2023-11-19T04:23:58;1.25;;;1.00;;
57643;SDS011;43474;46.510;6.686;2023-11-19T04:26:24;2.08;;;0.93;;
57643;SDS011;43474;46.510;6.686;2023-11-19T04:28:49;6.10;;;1.13;;
57643;SDS011;43474;46.510;6.686;2023-11-19T04:31:15;2.58;;;1.48;;
57643;SDS011;43474;46.510;6.686;2023-11-19T04:33:41;3.90;;;1.10;;
57643;SDS011;43474;46.510;6.686;2023-11-19T04:36:09;1.25;;;1.10;;
57643;SDS011;43474;46.510;6.686;2023-11-19T04:38:35;1.88;;;1.33;;
57643;SDS011;43474;46.510;6.686;2023-11-19T04:41:01;2.38;;;0.98;;
57643;SDS011;43474;46.510;6.686;2023-11-19T04:43:26;1.40;;;0.90;;
57643;SDS011;43474;46.510;6.686;2023-11-19T04:45:52;1.52;;;0.98;;
57643;SDS011;43474;46.510;6.686;2023-11-19T04:48:18;2.75;;;1.55;;
57643;SDS011;43474;46.510;6.686;2023-11-19T04:50:43;2.45;;;1.08;;
57643;SDS011;43474;46.510;6.686;2023-11-19T04:53:09;2.47;;;1.40;;
57643;SDS011;43474;46.510;6.686;2023-11-19T04:55:35;4.47;;;1.73;;
57643;SDS011;43474;46.510;6.686;2023-11-19T04:58:01;3.67;;;1.35;;
57643;SDS011;43474;46.510;6.686;2023-11-19T05:00:26;4.65;;;1.67;;
57643;SDS011;43474;46.510;6.686;2023-11-19T05:02:52;2.03;;;1.13;;
57643;SDS011;43474;46.510;6.686;2023-11-19T05:05:18;2.63;;;1.58;;
57643;SDS011;43474;46.510;6.686;2023-11-19T05:07:43;3.63;;;1.50;;
57643;SDS011;43474;46.510;6.686;2023-11-19T05:10:09;3.33;;;1.65;;
57643;SDS011;43474;46.510;6.686;2023-11-19T05:12:35;5.75;;;1.30;;
57643;SDS011;43474;46.510;6.686;2023-11-19T05:15:01;1.85;;;1.20;;
57643;SDS011;43474;46.510;6.686;2023-11-19T05:17:26;1.63;;;1.02;;
57643;SDS011;43474;46.510;6.686;2023-11-19T05:19:52;1.92;;;1.33;;
57643;SDS011;43474;46.510;6.686;2023-11-19T05:22:17;3.10;;;1.85;;
57643;SDS011;43474;46.510;6.686;2023-11-19T05:24:43;3.80;;;1.92;;
57643;SDS011;43474;46.510;6.686;2023-11-19T05:27:09;6.60;;;3.33;;
57643;SDS011;43474;46.510;6.686;2023-11-19T05:29:36;4.82;;;2.17;;
57643;SDS011;43474;46.510;6.686;2023-11-19T05:32:04;3.75;;;2.50;;
57643;SDS011;43474;46.510;6.686;2023-11-19T05:34:30;5.95;;;2.75;;
57643;SDS011;43474;46.510;6.686;2023-11-19T05:36:56;5.00;;;2.63;;
57643;SDS011;43474;46.510;6.686;2023-11-19T05:39:23;2.40;;;1.52;;
57643;SDS011;43474;46.510;6.686;2023-11-19T05:41:49;1.83;;;1.10;;
57643;SDS011;43474;46.510;6.686;2023-11-19T05:44:15;2.45;;;1.38;;
57643;SDS011;43474;46.510;6.686;2023-11-19T05:46:42;1.33;;;0.80;;
57643;SDS011;43474;46.510;6.686;2023-11-19T05:49:08;2.08;;;0.90;;
57643;SDS011;43474;46.510;6.686;2023-11-19T05:51:40;1.15;;;0.73;;
57643;SDS011;43474;46.510;6.686;2023-11-19T05:54:07;1.10;;;1.00;;
57643;SDS011;43474;46.510;6.686;2023-11-19T05:56:33;1.25;;;0.82;;
57643;SDS011;43474;46.510;6.686;2023-11-19T05:58:59;0.77;;;0.50;;
57643;SDS011;43474;46.510;6.686;2023-11-19T06:01:26;0.68;;;0.68;;
57643;SDS011;43474;46.510;6.686;2023-11-19T06:03:52;1.10;;;0.70;;
57643;SDS011;43474;46.510;6.686;2023-11-19T06:06:18;2.45;;;0.75;;
57643;SDS011;43474;46.510;6.686;2023-11-19T06:08:44;3.65;;;0.60;;
57643;SDS011;43474;46.510;6.686;2023-11-19T06:11:10;1.70;;;0.80;;
57643;SDS011;43474;46.510;6.686;2023-11-19T06:13:40;1.30;;;0.95;;
57643;SDS011;43474;46.510;6.686;2023-11-19T06:16:06;5.15;;;1.10;;
57643;SDS011;43474;46.510;6.686;2023-11-19T06:18:32;2.03;;;0.60;;
57643;SDS011;43474;46.510;6.686;2023-11-19T06:20:57;1.27;;;0.90;;
57643;SDS011;43474;46.510;6.686;2023-11-19T06:23:23;1.02;;;0.88;;
57643;SDS011;43474;46.510;6.686;2023-11-19T06:25:49;6.10;;;1.27;;
57643;SDS011;43474;46.510;6.686;2023-11-19T06:28:14;1.38;;;1.02;;
57643;SDS011;43474;46.510;6.686;2023-11-19T06:30:40;1.13;;;0.85;;
57643;SDS011;43474;46.510;6.686;2023-11-19T06:33:06;0.80;;;0.60;;
57643;SDS011;43474;46.510;6.686;2023-11-19T06:35:32;3.03;;;1.42;;
57643;SDS011;43474;46.510;6.686;2023-11-19T06:38:02;1.20;;;0.90;;
57643;SDS011;43474;46.510;6.686;2023-11-19T06:40:30;0.65;;;0.45;;
57643;SDS011;43474;46.510;6.686;2023-11-19T06:42:56;0.98;;;0.70;;
57643;SDS011;43474;46.510;6.686;2023-11-19T06:45:22;0.93;;;0.63;;
57643;SDS011;43474;46.510;6.686;2023-11-19T06:47:48;1.73;;;0.70;;
57643;SDS011;43474;46.510;6.686;2023-11-19T06:50:13;1.27;;;0.77;;
57643;SDS011;43474;46.510;6.686;2023-11-19T06:52:40;6.90;;;0.90;;
57643;SDS011;43474;46.510;6.686;2023-11-19T06:55:06;1.27;;;0.98;;
57643;SDS011;43474;46.510;6.686;2023-11-19T06:57:32;2.63;;;1.27;;
57643;SDS011;43474;46.510;6.686;2023-11-19T06:59:58;2.35;;;1.40;;
57643;SDS011;43474;46.510;6.686;2023-11-19T07:02:24;2.47;;;1.40;;
57643;SDS011;43474;46.510;6.686;2023-11-19T07:04:50;2.38;;;1.55;;
57643;SDS011;43474;46.510;6.686;2023-11-19T07:07:16;3.50;;;1.70;;
57643;SDS011;43474;46.510;6.686;2023-11-19T07:09:42;2.70;;;1.65;;
57643;SDS011;43474;46.510;6.686;2023-11-19T07:12:08;2.40;;;1.45;;
57643;SDS011;43474;46.510;6.686;2023-11-19T07:14:34;1.95;;;1.30;;
57643;SDS011;43474;46.510;6.686;2023-11-19T07:17:00;2.22;;;1.42;;
57643;SDS011;43474;46.510;6.686;2023-11-19T07:19:26;2.38;;;1.10;;
57643;SDS011;43474;46.510;6.686;2023-11-19T07:21:52;1.50;;;1.30;;
57643;SDS011;43474;46.510;6.686;2023-11-19T07:24:19;3.67;;;1.42;;
57643;SDS011;43474;46.510;6.686;2023-11-19T07:26:47;2.63;;;1.25;;
57643;SDS011;43474;46.510;6.686;2023-11-19T07:29:13;3.22;;;1.65;;
57643;SDS011;43474;46.510;6.686;2023-11-19T07:31:40;2.97;;;1.48;;
57643;SDS011;43474;46.510;6.686;2023-11-19T07:34:06;1.90;;;1.35;;
57643;SDS011;43474;46.510;6.686;2023-11-19T07:36:32;4.80;;;1.88;;
57643;SDS011;43474;46.510;6.686;2023-11-19T07:38:58;2.80;;;1.60;;
57643;SDS011;43474;46.510;6.686;2023-11-19T07:41:24;1.92;;;0.95;;
57643;SDS011;43474;46.510;6.686;2023-11-19T07:43:50;2.08;;;1.00;;
57643;SDS011;43474;46.510;6.686;2023-11-19T07:46:17;1.88;;;0.80;;
57643;SDS011;43474;46.510;6.686;2023-11-19T07:48:45;4.15;;;1.23;;
57643;SDS011;43474;46.510;6.686;2023-11-19T07:51:12;2.60;;;0.90;;
57643;SDS011;43474;46.510;6.686;2023-11-19T07:53:39;1.20;;;1.10;;
57643;SDS011;43474;46.510;6.686;2023-11-19T07:56:06;2.90;;;1.05;;
57643;SDS011;43474;46.510;6.686;2023-11-19T07:58:35;1.83;;;1.00;;
57643;SDS011;43474;46.510;6.686;2023-11-19T08:01:02;1.48;;;0.95;;
57643;SDS011;43474;46.510;6.686;2023-11-19T08:03:27;1.98;;;0.80;;
57643;SDS011;43474;46.510;6.686;2023-11-19T08:05:55;2.78;;;1.25;;
57643;SDS011;43474;46.510;6.686;2023-11-19T08:08:22;2.13;;;1.17;;
57643;SDS011;43474;46.510;6.686;2023-11-19T08:10:48;1.73;;;1.15;;
57643;SDS011;43474;46.510;6.686;2023-11-19T08:13:14;7.53;;;0.93;;
57643;SDS011;43474;46.510;6.686;2023-11-19T08:15:40;1.30;;;0.80;;
57643;SDS011;43474;46.510;6.686;2023-11-19T08:18:06;0.93;;;0.60;;
57643;SDS011;43474;46.510;6.686;2023-11-19T08:20:32;1.38;;;0.73;;
57643;SDS011;43474;46.510;6.686;2023-11-19T08:22:58;2.15;;;0.93;;
57643;SDS011;43474;46.510;6.686;2023-11-19T08:25:24;0.52;;;0.52;;
57643;SDS011;43474;46.510;6.686;2023-11-19T08:27:50;0.75;;;0.75;;
57643;SDS011;43474;46.510;6.686;2023-11-19T08:30:16;2.13;;;0.88;;
57643;SDS011;43474;46.510;6.686;2023-11-19T08:32:41;1.60;;;0.80;;
57643;SDS011;43474;46.510;6.686;2023-11-19T08:35:07;1.08;;;0.70;;
57643;SDS011;43474;46.510;6.686;2023-11-19T08:37:33;1.27;;;0.93;;
57643;SDS011;43474;46.510;6.686;2023-11-19T08:40:02;3.15;;;2.17;;
57643;SDS011;43474;46.510;6.686;2023-11-19T08:42:29;4.00;;;1.83;;
57643;SDS011;43474;46.510;6.686;2023-11-19T08:44:55;3.85;;;2.00;;
57643;SDS011;43474;46.510;6.686;2023-11-19T08:47:20;2.15;;;1.38;;
57643;SDS011;43474;46.510;6.686;2023-11-19T08:49:50;2.90;;;1.60;;
57643;SDS011;43474;46.510;6.686;2023-11-19T08:52:20;3.10;;;1.58;;
57643;SDS011;43474;46.510;6.686;2023-11-19T08:54:46;2.85;;;1.40;;
57643;SDS011;43474;46.510;6.686;2023-11-19T08:57:11;2.72;;;1.58;;
57643;SDS011;43474;46.510;6.686;2023-11-19T08:59:39;3.88;;;2.03;;
57643;SDS011;43474;46.510;6.686;2023-11-19T09:02:07;4.40;;;2.10;;
57643;SDS011;43474;46.510;6.686;2023-11-19T09:04:34;2.13;;;1.58;;
57643;SDS011;43474;46.510;6.686;2023-11-19T09:07:01;2.25;;;1.58;;
57643;SDS011;43474;46.510;6.686;2023-11-19T09:09:27;2.95;;;1.85;;
57643;SDS011;43474;46.510;6.686;2023-11-19T09:11:52;2.40;;;2.10;;
57643;SDS011;43474;46.510;6.686;2023-11-19T09:14:18;1.92;;;1.40;;
57643;SDS011;43474;46.510;6.686;2023-11-19T09:16:46;2.88;;;1.83;;
57643;SDS011;43474;46.510;6.686;2023-11-19T09:19:11;6.28;;;2.53;;
57643;SDS011;43474;46.510;6.686;2023-11-19T09:21:37;3.78;;;2.78;;
57643;SDS011;43474;46.510;6.686;2023-11-19T09:24:04;4.28;;;3.42;;
57643;SDS011;43474;46.510;6.686;2023-11-19T09:26:30;4.72;;;3.40;;
57643;SDS011;43474;46.510;6.686;2023-11-19T09:28:56;4.45;;;2.40;;
57643;SDS011;43474;46.510;6.686;2023-11-19T09:31:22;4.88;;;2.20;;
57643;SDS011;43474;46.510;6.686;2023-11-19T09:33:47;4.70;;;2.50;;
57643;SDS011;43474;46.510;6.686;2023-11-19T09:36:13;3.17;;;2.30;;
57643;SDS011;43474;46.510;6.686;2023-11-19T09:38:40;5.32;;;2.15;;
57643;SDS011;43474;46.510;6.686;2023-11-19T09:41:06;1.70;;;1.40;;
57643;SDS011;43474;46.510;6.686;2023-11-19T09:43:35;2.45;;;1.58;;
57643;SDS011;43474;46.510;6.686;2023-11-19T09:46:04;2.80;;;1.80;;
57643;SDS011;43474;46.510;6.686;2023-11-19T09:48:32;10.43;;;4.15;;
57643;SDS011;43474;46.510;6.686;2023-11-19T09:50:59;11.23;;;3.42;;
57643;SDS011;43474;46.510;6.686;2023-11-19T09:53:26;8.57;;;4.32;;
57643;SDS011;43474;46.510;6.686;2023-11-19T09:55:52;5.22;;;3.13;;
57643;SDS011;43474;46.510;6.686;2023-11-19T09:58:19;4.63;;;3.13;;
57643;SDS011;43474;46.510;6.686;2023-11-19T10:00:44;6.78;;;3.20;;
57643;SDS011;43474;46.510;6.686;2023-11-19T10:03:10;3.47;;;2.05;;
57643;SDS011;43474;46.510;6.686;2023-11-19T10:05:37;1.33;;;0.95;;
57643;SDS011;43474;46.510;6.686;2023-11-19T10:08:04;3.00;;;1.13;;
57643;SDS011;43474;46.510;6.686;2023-11-19T10:10:31;0.80;;;0.80;;
57643;SDS011;43474;46.510;6.686;2023-11-19T10:12:56;1.52;;;0.70;;
57643;SDS011;43474;46.510;6.686;2023-11-19T10:15:23;2.03;;;1.10;;
57643;SDS011;43474;46.510;6.686;2023-11-19T10:17:50;3.95;;;2.03;;
57643;SDS011;43474;46.510;6.686;2023-11-19T10:20:16;6.47;;;3.92;;
57643;SDS011;43474;46.510;6.686;2023-11-19T10:22:42;7.07;;;3.92;;
57643;SDS011;43474;46.510;6.686;2023-11-19T10:25:21;4.40;;;2.72;;
57643;SDS011;43474;46.510;6.686;2023-11-19T10:27:49;4.25;;;2.75;;
57643;SDS011;43474;46.510;6.686;2023-11-19T10:30:22;5.40;;;3.42;;
57643;SDS011;43474;46.510;6.686;2023-11-19T10:38:24;5.82;;;3.88;;
57643;SDS011;43474;46.510;6.686;2023-11-19T10:40:51;4.93;;;3.13;;
57643;SDS011;43474;46.510;6.686;2023-11-19T10:43:17;5.53;;;3.30;;
57643;SDS011;43474;46.510;6.686;2023-11-19T10:45:43;2.72;;;1.65;;
57643;SDS011;43474;46.510;6.686;2023-11-19T10:48:10;1.40;;;1.17;;
57643;SDS011;43474;46.510;6.686;2023-11-19T10:50:38;2.40;;;1.33;;
57643;SDS011;43474;46.510;6.686;2023-11-19T10:53:05;3.03;;;1.40;;
57643;SDS011;43474;46.510;6.686;2023-11-19T10:55:32;1.17;;;0.88;;
57643;SDS011;43474;46.510;6.686;2023-11-19T10:58:01;2.58;;;1.05;;
57643;SDS011;43474;46.510;6.686;2023-11-19T11:00:30;1.38;;;1.02;;
57643;SDS011;43474;46.510;6.686;2023-11-19T11:05:43;3.10;;;1.40;;
57643;SDS011;43474;46.510;6.686;2023-11-19T11:08:13;4.55;;;2.95;;
57643;SDS011;43474;46.510;6.686;2023-11-19T11:10:46;4.05;;;2.78;;
57643;SDS011;43474;46.510;6.686;2023-11-19T11:13:18;5.53;;;3.47;;
57643;SDS011;43474;46.510;6.686;2023-11-19T11:15:44;5.07;;;2.92;;
57643;SDS011;43474;46.510;6.686;2023-11-19T11:18:13;7.18;;;3.88;;
57643;SDS011;43474;46.510;6.686;2023-11-19T11:20:39;4.60;;;3.40;;
57643;SDS011;43474;46.510;6.686;2023-11-19T11:39:57;0.73;;;0.70;;
57643;SDS011;43474;46.510;6.686;2023-11-19T11:45:06;3.53;;;2.33;;
57643;SDS011;43474;46.510;6.686;2023-11-19T11:50:25;5.57;;;2.65;;
57643;SDS011;43474;46.510;6.686;2023-11-19T11:58:21;4.55;;;2.42;;
57643;SDS011;43474;46.510;6.686;2023-11-19T12:00:51;3.47;;;2.13;;
57643;SDS011;43474;46.510;6.686;2023-11-19T12:03:19;2.72;;;2.00;;
57643;SDS011;43474;46.510;6.686;2023-11-19T12:05:47;2.28;;;2.05;;
57643;SDS011;43474;46.510;6.686;2023-11-19T12:08:14;3.03;;;2.30;;
57643;SDS011;43474;46.510;6.686;2023-11-19T12:10:45;5.72;;;2.33;;
57643;SDS011;43474;46.510;6.686;2023-11-19T12:13:18;5.35;;;2.78;;
57643;SDS011;43474;46.510;6.686;2023-11-19T12:18:27;4.82;;;2.83;;
57643;SDS011;43474;46.510;6.686;2023-11-19T12:20:56;3.20;;;2.40;;
57643;SDS011;43474;46.510;6.686;2023-11-19T12:23:26;3.58;;;1.80;;
57643;SDS011;43474;46.510;6.686;2023-11-19T12:25:54;3.03;;;2.10;;
57643;SDS011;43474;46.510;6.686;2023-11-19T12:28:20;2.88;;;1.98;;
57643;SDS011;43474;46.510;6.686;2023-11-19T12:30:46;2.88;;;1.67;;
57643;SDS011;43474;46.510;6.686;2023-11-19T12:33:13;2.83;;;1.90;;
57643;SDS011;43474;46.510;6.686;2023-11-19T12:35:43;3.22;;;2.15;;
57643;SDS011;43474;46.510;6.686;2023-11-19T12:38:24;3.67;;;1.80;;
57643;SDS011;43474;46.510;6.686;2023-11-19T12:41:03;3.33;;;2.10;;
57643;SDS011;43474;46.510;6.686;2023-11-19T12:43:33;6.45;;;2.42;;
57643;SDS011;43474;46.510;6.686;2023-11-19T12:48:58;4.72;;;2.53;;
57643;SDS011;43474;46.510;6.686;2023-11-19T12:51:30;3.95;;;2.15;;
57643;SDS011;43474;46.510;6.686;2023-11-19T12:53:57;3.65;;;2.20;;
57643;SDS011;43474;46.510;6.686;2023-11-19T12:56:23;3.38;;;2.42;;
57643;SDS011;43474;46.510;6.686;2023-11-19T12:58:50;7.13;;;4.05;;
57643;SDS011;43474;46.510;6.686;2023-11-19T13:01:20;5.90;;;2.67;;
57643;SDS011;43474;46.510;6.686;2023-11-19T13:03:46;5.70;;;2.65;;
57643;SDS011;43474;46.510;6.686;2023-11-19T13:06:14;5.78;;;2.92;;
57643;SDS011;43474;46.510;6.686;2023-11-19T13:08:41;3.45;;;2.65;;
57643;SDS011;43474;46.510;6.686;2023-11-19T13:11:14;7.00;;;3.05;;
57643;SDS011;43474;46.510;6.686;2023-11-19T13:13:56;4.35;;;2.00;;
57643;SDS011;43474;46.510;6.686;2023-11-19T13:16:24;4.80;;;2.47;;
57643;SDS011;43474;46.510;6.686;2023-11-19T13:18:50;4.07;;;2.53;;
57643;SDS011;43474;46.510;6.686;2023-11-19T13:21:17;3.42;;;2.50;;
57643;SDS011;43474;46.510;6.686;2023-11-19T13:23:43;3.63;;;2.05;;
57643;SDS011;43474;46.510;6.686;2023-11-19T13:26:09;3.72;;;1.92;;
57643;SDS011;43474;46.510;6.686;2023-11-19T13:28:36;3.90;;;2.47;;
57643;SDS011;43474;46.510;6.686;2023-11-19T13:31:02;4.75;;;2.53;;
57643;SDS011;43474;46.510;6.686;2023-11-19T13:33:28;4.38;;;2.25;;
57643;SDS011;43474;46.510;6.686;2023-11-19T13:35:55;5.03;;;2.90;;
57643;SDS011;43474;46.510;6.686;2023-11-19T13:38:21;4.05;;;2.75;;
57643;SDS011;43474;46.510;6.686;2023-11-19T13:40:48;4.55;;;2.40;;
57643;SDS011;43474;46.510;6.686;2023-11-19T13:43:14;5.10;;;2.78;;
57643;SDS011;43474;46.510;6.686;2023-11-19T13:45:40;4.00;;;2.30;;
57643;SDS011;43474;46.510;6.686;2023-11-19T13:48:06;3.67;;;2.40;;
57643;SDS011;43474;46.510;6.686;2023-11-19T13:50:32;4.22;;;2.70;;
57643;SDS011;43474;46.510;6.686;2023-11-19T13:52:59;3.70;;;2.42;;
57643;SDS011;43474;46.510;6.686;2023-11-19T13:55:25;3.90;;;2.53;;
57643;SDS011;43474;46.510;6.686;2023-11-19T13:57:51;3.90;;;2.72;;
57643;SDS011;43474;46.510;6.686;2023-11-19T14:00:17;5.10;;;2.67;;
57643;SDS011;43474;46.510;6.686;2023-11-19T14:02:44;3.85;;;2.38;;
57643;SDS011;43474;46.510;6.686;2023-11-19T14:05:12;3.55;;;2.47;;
57643;SDS011;43474;46.510;6.686;2023-11-19T14:07:39;4.57;;;2.60;;
57643;SDS011;43474;46.510;6.686;2023-11-19T14:10:06;4.07;;;2.53;;
57643;SDS011;43474;46.510;6.686;2023-11-19T14:12:34;5.47;;;2.58;;
57643;SDS011;43474;46.510;6.686;2023-11-19T14:15:01;3.65;;;2.28;;
57643;SDS011;43474;46.510;6.686;2023-11-19T14:17:27;3.95;;;2.67;;
57643;SDS011;43474;46.510;6.686;2023-11-19T14:19:53;4.05;;;2.72;;
57643;SDS011;43474;46.510;6.686;2023-11-19T14:22:18;3.67;;;2.08;;
57643;SDS011;43474;46.510;6.686;2023-11-19T14:24:45;3.20;;;2.38;;
57643;SDS011;43474;46.510;6.686;2023-11-19T14:27:10;3.85;;;3.00;;
57643;SDS011;43474;46.510;6.686;2023-11-19T14:29:37;3.58;;;2.80;;
57643;SDS011;43474;46.510;6.686;2023-11-19T14:32:03;4.82;;;2.92;;
57643;SDS011;43474;46.510;6.686;2023-11-19T14:34:30;6.88;;;4.03;;
57643;SDS011;43474;46.510;6.686;2023-11-19T14:36:56;5.60;;;3.40;;
57643;SDS011;43474;46.510;6.686;2023-11-19T14:39:22;4.10;;;2.92;;
57643;SDS011;43474;46.510;6.686;2023-11-19T14:41:48;7.78;;;2.97;;
57643;SDS011;43474;46.510;6.686;2023-11-19T14:44:15;4.30;;;2.97;;
57643;SDS011;43474;46.510;6.686;2023-11-19T14:46:41;6.55;;;2.28;;
57643;SDS011;43474;46.510;6.686;2023-11-19T14:49:06;4.63;;;2.85;;
57643;SDS011;43474;46.510;6.686;2023-11-19T14:51:39;3.08;;;2.35;;
57643;SDS011;43474;46.510;6.686;2023-11-19T14:54:06;5.93;;;2.85;;
57643;SDS011;43474;46.510;6.686;2023-11-19T14:56:31;2.88;;;2.35;;
57643;SDS011;43474;46.510;6.686;2023-11-19T14:58:58;3.83;;;2.53;;
57643;SDS011;43474;46.510;6.686;2023-11-19T15:01:24;6.57;;;3.08;;
57643;SDS011;43474;46.510;6.686;2023-11-19T15:03:51;3.60;;;2.63;;
57643;SDS011;43474;46.510;6.686;2023-11-19T15:06:17;4.63;;;2.55;;
57643;SDS011;43474;46.510;6.686;2023-11-19T15:08:43;7.28;;;3.22;;
57643;SDS011;43474;46.510;6.686;2023-11-19T15:11:10;4.05;;;2.53;;
57643;SDS011;43474;46.510;6.686;2023-11-19T15:13:37;4.55;;;2.75;;
57643;SDS011;43474;46.510;6.686;2023-11-19T15:16:06;4.60;;;3.03;;
57643;SDS011;43474;46.510;6.686;2023-11-19T15:18:32;3.42;;;2.58;;
57643;SDS011;43474;46.510;6.686;2023-11-19T15:20:58;4.85;;;3.22;;
57643;SDS011;43474;46.510;6.686;2023-11-19T15:23:24;4.57;;;2.95;;
57643;SDS011;43474;46.510;6.686;2023-11-19T15:25:50;6.20;;;3.47;;
57643;SDS011;43474;46.510;6.686;2023-11-19T15:28:16;7.90;;;3.72;;
57643;SDS011;43474;46.510;6.686;2023-11-19T15:30:41;8.30;;;4.85;;